Private Wetterstation Ehingen
Wetterdaten: aktuell Sonntag, 20.08.2017 09:30
Datum Zeit Temperatur Luftfeuchte Luftdruck Regen Wind Richtung Richtung Sonnenschein Taupunkt Windchill Windben
20.08.2017 09:30 14,4 C 80 % 1022,5 hPa 0,0 l/m 0,0 km/h (0 Bft) W 263 5 min 11,0 C 14,4 C 0,0 km/h (0 Bft)
20.08.2017 09:25 13,9 C 80 % 1022,6 hPa 0,0 l/m 0,0 km/h (0 Bft) W 263 5 min 10,5 C 13,9 C 0,0 km/h (0 Bft)
20.08.2017 09:15 13,3 C 82 % 1022,7 hPa 0,0 l/m 0,0 km/h (0 Bft) W 263 5 min 10,3 C 13,3 C 0,0 km/h (0 Bft)
20.08.2017 09:10 12,9 C 83 % 1022,8 hPa 0,0 l/m 0,0 km/h (0 Bft) W 263 5 min 10,1 C 12,9 C 0,0 km/h (0 Bft)
20.08.2017 09:05 12,7 C 83 % 1022,9 hPa 0,0 l/m 0,0 km/h (0 Bft) W 263 5 min 9,9 C 12,7 C 0,0 km/h (0 Bft)
20.08.2017 09:00 12,6 C 83 % 1022,9 hPa 0,0 l/m 0,0 km/h (0 Bft) W 263 5 min 9,8 C 12,6 C 0,0 km/h (0 Bft)
20.08.2017 08:55 12,4 C 83 % 1022,9 hPa 0,0 l/m 0,0 km/h (0 Bft) W 263 5 min 9,6 C 12,4 C 0,0 km/h (0 Bft)
20.08.2017 08:50 12,3 C 83 % 1022,9 hPa 0,0 l/m 0,0 km/h (0 Bft) W 263 5 min 9,5 C 12,3 C 0,0 km/h (0 Bft)
20.08.2017 08:45 12,1 C 82 % 1023,0 hPa 0,0 l/m 0,0 km/h (0 Bft) W 263 5 min 9,1 C 12,1 C 0,0 km/h (0 Bft)
20.08.2017 08:40 12,0 C 81 % 1021,9 hPa 0,0 l/m 0,0 km/h (0 Bft) W 263 5 min 8,8 C 12,0 C 0,0 km/h (0 Bft)
20.08.2017 08:35 11,8 C 82 % 1022,0 hPa 0,0 l/m 5,3 km/h (1 Bft) W 263 5 min 8,8 C 11,8 C 7,9 km/h (2 Bft)
20.08.2017 08:30 11,7 C 84 % 1022,0 hPa 0,0 l/m 0,0 km/h (0 Bft) W 263 5 min 9,1 C 11,7 C 0,0 km/h (0 Bft)
20.08.2017 08:25 11,6 C 84 % 1022,0 hPa 0,0 l/m 0,0 km/h (0 Bft) W 263 5 min 9,0 C 11,6 C 0,0 km/h (0 Bft)
20.08.2017 08:20 11,5 C 84 % 1022,1 hPa 0,0 l/m 0,0 km/h (0 Bft) W 263 5 min 8,9 C 11,5 C 6,1 km/h (2 Bft)
20.08.2017 08:15 11,4 C 84 % 1022,1 hPa 0,0 l/m 0,0 km/h (0 Bft) W 263 5 min 8,8 C 11,4 C 0,0 km/h (0 Bft)
20.08.2017 08:10 11,2 C 84 % 1022,1 hPa 0,0 l/m 0,0 km/h (0 Bft) W 263 5 min 8,6 C 11,2 C 0,0 km/h (0 Bft)
20.08.2017 08:05 11,1 C 84 % 1022,1 hPa 0,0 l/m 0,0 km/h (0 Bft) W 263 5 min 8,5 C 11,1 C 0,0 km/h (0 Bft)
20.08.2017 08:00 11,0 C 85 % 1022,2 hPa 0,0 l/m 0,0 km/h (0 Bft) W 263 5 min 8,6 C 11,0 C 0,0 km/h (0 Bft)
20.08.2017 07:55 10,8 C 86 % 1022,2 hPa 0,0 l/m 0,0 km/h (0 Bft) W 263 5 min 8,6 C 10,8 C 0,0 km/h (0 Bft)
20.08.2017 07:50 10,6 C 87 % 1022,3 hPa 0,0 l/m 0,0 km/h (0 Bft) W 263 5 min 8,5 C 10,6 C 0,0 km/h (0 Bft)
20.08.2017 07:45 10,3 C 88 % 1022,3 hPa 0,0 l/m 0,0 km/h (0 Bft) W 263 5 min 8,4 C 10,3 C 0,0 km/h (0 Bft)
20.08.2017 07:40 10,1 C 89 % 1022,4 hPa 0,0 l/m 0,0 km/h (0 Bft) W 263 5 min 8,4 C 10,1 C 0,0 km/h (0 Bft)
20.08.2017 07:35 9,8 C 89 % 1022,4 hPa 0,0 l/m 0,0 km/h (0 Bft) W 263 5 min 8,1 C 9,8 C 0,0 km/h (0 Bft)
20.08.2017 07:30 9,6 C 90 % 1022,5 hPa 0,0 l/m 0,0 km/h (0 Bft) W 263 5 min 8,0 C 9,6 C 0,0 km/h (0 Bft)
20.08.2017 07:25 9,4 C 90 % 1022,5 hPa 0,0 l/m 0,0 km/h (0 Bft) W 263 5 min 7,8 C 9,4 C 0,0 km/h (0 Bft)
20.08.2017 07:20 9,3 C 90 % 1022,5 hPa 0,0 l/m 5,3 km/h (1 Bft) W 263 5 min 7,7 C 9,3 C 5,3 km/h (1 Bft)
20.08.2017 07:15 9,2 C 90 % 1022,6 hPa 0,0 l/m 7,0 km/h (2 Bft) W 263 5 min 7,6 C 8,8 C 7,0 km/h (2 Bft)
20.08.2017 07:10 9,1 C 91 % 1022,6 hPa 0,0 l/m 7,0 km/h (2 Bft) W 263 5 min 7,7 C 8,7 C 7,9 km/h (2 Bft)
20.08.2017 07:05 8,9 C 91 % 1022,6 hPa 0,0 l/m 5,3 km/h (1 Bft) W 263 5 min 7,5 C 8,9 C 7,9 km/h (2 Bft)
20.08.2017 07:00 8,8 C 90 % 1021,6 hPa 0,0 l/m 4,4 km/h (1 Bft) W-SW 254 5 min 7,3 C 8,8 C 5,3 km/h (1 Bft)
20.08.2017 06:55 8,8 C 89 % 1021,6 hPa 0,0 l/m 4,4 km/h (1 Bft) W-SW 254 5 min 7,1 C 8,8 C 7,9 km/h (2 Bft)
20.08.2017 06:50 8,8 C 89 % 1021,6 hPa 0,0 l/m 0,0 km/h (0 Bft) NW 310 5 min 7,1 C 8,8 C 0,0 km/h (0 Bft)
20.08.2017 06:45 8,8 C 88 % 1021,6 hPa 0,0 l/m 0,0 km/h (0 Bft) NW 310 5 min 6,9 C 8,8 C 0,0 km/h (0 Bft)
20.08.2017 06:40 8,8 C 88 % 1021,6 hPa 0,0 l/m 0,0 km/h (0 Bft) NW 310 5 min 6,9 C 8,8 C 0,0 km/h (0 Bft)
20.08.2017 06:35 8,9 C 88 % 1021,6 hPa 0,0 l/m 0,0 km/h (0 Bft) NW 310 5 min 7,0 C 8,9 C 0,0 km/h (0 Bft)
20.08.2017 06:30 8,9 C 88 % 1021,6 hPa 0,0 l/m 0,0 km/h (0 Bft) NW 310 0 min 7,0 C 8,9 C 0,0 km/h (0 Bft)
20.08.2017 06:25 9,0 C 87 % 1021,5 hPa 0,0 l/m 0,0 km/h (0 Bft) NW 310 0 min 7,0 C 9,0 C 0,0 km/h (0 Bft)
20.08.2017 06:20 9,1 C 87 % 1021,5 hPa 0,0 l/m 0,0 km/h (0 Bft) NW 310 0 min 7,1 C 9,1 C 0,0 km/h (0 Bft)
20.08.2017 06:15 9,1 C 87 % 1021,5 hPa 0,0 l/m 0,0 km/h (0 Bft) NW 310 0 min 7,1 C 9,1 C 0,0 km/h (0 Bft)
20.08.2017 06:10 9,2 C 87 % 1021,5 hPa 0,0 l/m 0,0 km/h (0 Bft) NW 310 0 min 7,2 C 9,2 C 0,0 km/h (0 Bft)
20.08.2017 06:05 9,3 C 87 % 1021,5 hPa 0,0 l/m 0,0 km/h (0 Bft) NW 310 0 min 7,2 C 9,3 C 0,0 km/h (0 Bft)
_ Min-Zeit 07:00 00:25 00:00 - 09:30 - - - 06:45 07:10 09:30
Minimum _ 8,8 C 79 % 1020,6 hPa - 0,0 km/h (0 Bft) - - - 6,9 C 8,7 C 0,0 km/h (0 Bft)
_ Max-Zeit 09:30 07:10 08:45 09:30 07:15 - - 09:30 09:30 09:30 08:35
Maximum _ 14,4 C 91 % 1023,0 hPa 0,0 l/m 7,0 km/h
W (2 Bft)
- - 5 min 11,0 C 14,4 C 7,9 km/h
W (2 Bft)
Durchschnitt _ 10,7 C 85 % 1021,5 hPa #0,0 l/m 0,3 km/h (0 Bft) W - #2:55 h 8,2 C 10,7 C 0,5 km/h (0 Bft)